createdAt,value
2022-09-24T00:03:25.232Z,21.73
2022-09-24T00:08:27.724Z,22.35
2022-09-24T00:13:30.977Z,22.56
2022-09-24T00:18:32.832Z,23.06
2022-09-24T00:23:34.955Z,23.50
2022-09-24T00:28:37.744Z,22.66
2022-09-24T00:33:39.649Z,24.85
2022-09-24T00:38:41.613Z,24.20
2022-09-24T00:43:43.570Z,24.15
2022-09-24T00:48:47.495Z,24.36
2022-09-24T00:53:55.337Z,24.69
2022-09-24T00:59:02.005Z,22.43
2022-09-24T01:04:06.231Z,22.31
2022-09-24T01:09:08.918Z,22.41
2022-09-24T01:14:16.777Z,23.71
2022-09-24T01:19:30.744Z,23.24
2022-09-24T01:25:00.285Z,21.44
2022-09-24T01:30:10.586Z,20.37
2022-09-24T01:35:31.837Z,21.95
2022-09-24T01:40:34.794Z,22.70
2022-09-24T01:45:39.510Z,22.63
2022-09-24T01:50:51.883Z,21.61
2022-09-24T01:56:01.424Z,22.30
2022-09-24T02:01:10.525Z,21.79
2022-09-24T02:06:21.034Z,21.90
2022-09-24T02:11:24.467Z,21.73
2022-09-24T02:16:47.962Z,21.76
2022-09-24T02:21:50.819Z,25.04
2022-09-24T02:26:52.998Z,26.07
2022-09-24T02:31:57.199Z,25.94
2022-09-24T02:37:08.132Z,25.20
2022-09-24T02:42:13.667Z,25.46
2022-09-24T02:47:15.961Z,24.94
2022-09-24T02:52:18.973Z,23.55
2022-09-24T02:57:20.972Z,23.27
2022-09-24T03:02:23.004Z,22.92
2022-09-24T03:07:25.100Z,22.24
2022-09-24T03:12:27.210Z,23.29
2022-09-24T03:17:29.136Z,22.21
2022-09-24T03:22:31.000Z,22.18
2022-09-24T03:27:32.918Z,24.21
2022-09-24T03:32:35.879Z,23.15
2022-09-24T03:37:37.843Z,21.47
2022-09-24T03:42:39.949Z,21.75
2022-09-24T03:47:42.744Z,22.36
2022-09-24T03:52:44.672Z,22.05
2022-09-24T03:57:46.545Z,21.85
2022-09-24T04:02:48.479Z,21.44
2022-09-24T04:07:50.462Z,21.45
2022-09-24T04:12:52.853Z,21.40
2022-09-24T04:17:56.914Z,21.42
2022-09-24T04:22:59.606Z,24.01
2022-09-24T04:28:04.433Z,26.45
2022-09-24T04:33:07.154Z,26.47
2022-09-24T04:38:09.012Z,25.94
2022-09-24T04:43:10.898Z,24.45
2022-09-24T04:48:13.466Z,23.56
2022-09-24T04:53:15.352Z,24.04
2022-09-24T04:58:17.345Z,23.56
2022-09-24T05:03:21.308Z,22.89
2022-09-24T05:08:23.301Z,22.98
2022-09-24T05:13:26.886Z,22.56
2022-09-24T05:18:29.036Z,22.11
2022-09-24T05:23:31.101Z,20.89
2022-09-24T05:28:33.214Z,19.42
2022-09-24T05:33:36.190Z,19.81
2022-09-24T05:38:41.578Z,17.96
2022-09-24T05:43:43.796Z,16.27
2022-09-24T05:48:45.691Z,14.49
2022-09-24T05:53:47.633Z,14.29
2022-09-24T05:58:50.379Z,11.67
2022-09-24T06:03:52.354Z,16.17
2022-09-24T06:08:54.941Z,18.60
2022-09-24T06:13:57.048Z,18.77
2022-09-24T06:18:59.179Z,18.58
2022-09-24T06:24:01.222Z,16.55
2022-09-24T06:29:05.179Z,15.74
2022-09-24T06:34:07.378Z,15.84
2022-09-24T06:39:09.564Z,19.44
2022-09-24T06:44:11.625Z,17.86
2022-09-24T06:49:13.552Z,19.75
2022-09-24T06:54:16.933Z,20.47
2022-09-24T06:59:19.188Z,16.93
2022-09-24T07:04:21.137Z,16.64
2022-09-24T07:09:23.002Z,14.31
2022-09-24T07:14:25.041Z,12.92
2022-09-24T07:19:27.125Z,8.62
2022-09-24T07:24:29.061Z,5.57
2022-09-24T07:29:31.812Z,-1.32
2022-09-24T07:34:33.773Z,-3.82
2022-09-24T07:39:35.875Z,-3.25
2022-09-24T07:44:38.223Z,-3.90
2022-09-24T07:49:42.360Z,-4.93
2022-09-24T07:54:44.469Z,-5.11
2022-09-24T07:59:46.304Z,118.11
2022-09-24T08:04:49.021Z,114.84
2022-09-24T08:09:50.892Z,115.75
2022-09-24T08:14:52.927Z,116.30
2022-09-24T08:19:56.959Z,117.60
2022-09-24T08:24:59.051Z,117.81
2022-09-24T08:30:01.120Z,116.01
2022-09-24T08:35:03.101Z,114.01
2022-09-24T08:40:05.497Z,111.84
2022-09-24T08:45:28.316Z,110.08
2022-09-24T08:50:32.804Z,104.78
2022-09-24T08:55:48.041Z,102.96
2022-09-24T09:00:59.694Z,104.60
2022-09-24T09:06:05.421Z,106.61
2022-09-24T09:11:11.195Z,102.03
2022-09-24T09:16:27.975Z,102.41
2022-09-24T09:21:38.090Z,102.25
2022-09-24T09:26:40.005Z,102.25
2022-09-24T09:31:56.539Z,99.54
2022-09-24T09:37:04.538Z,99.90
2022-09-24T09:42:32.196Z,100.23
2022-09-24T09:47:41.521Z,100.39
2022-09-24T09:52:43.564Z,103.84
2022-09-24T09:57:45.916Z,104.73
2022-09-24T10:02:53.819Z,104.17
2022-09-24T10:07:59.676Z,101.19
2022-09-24T10:13:13.284Z,101.60
2022-09-24T10:18:15.374Z,98.72
2022-09-24T10:23:23.416Z,95.70
2022-09-24T10:28:44.296Z,96.21
2022-09-24T10:33:49.366Z,91.77
2022-09-24T10:39:09.940Z,91.82
2022-09-24T10:44:14.810Z,92.33
2022-09-24T10:49:42.205Z,89.15
2022-09-24T10:55:02.234Z,89.97
2022-09-24T11:00:20.961Z,91.21
2022-09-24T11:05:23.834Z,89.20
2022-09-24T11:10:40.669Z,88.42
2022-09-24T11:16:04.635Z,83.49
2022-09-24T11:21:24.869Z,86.23
2022-09-24T11:26:47.627Z,86.06
2022-09-24T11:32:27.258Z,83.83
2022-09-24T11:37:58.645Z,84.83
2022-09-24T11:43:15.872Z,85.81
2022-09-24T11:48:55.592Z,87.06
2022-09-24T11:54:14.189Z,85.42
2022-09-24T11:59:41.002Z,88.37
2022-09-24T12:04:59.205Z,87.87
2022-09-24T12:10:19.329Z,87.64
2022-09-24T12:15:30.918Z,86.89
2022-09-24T12:20:48.501Z,85.32
2022-09-24T12:25:51.455Z,86.29
2022-09-24T12:31:18.514Z,86.39
2022-09-24T12:36:32.998Z,84.52
2022-09-24T12:41:39.510Z,85.29
2022-09-24T12:46:43.290Z,87.10
2022-09-24T12:51:45.476Z,88.18
2022-09-24T12:56:47.402Z,88.90
2022-09-24T13:01:49.369Z,89.05
2022-09-24T13:06:52.259Z,87.80
2022-09-24T13:12:22.030Z,87.51
2022-09-24T13:17:24.536Z,88.76
2022-09-24T13:22:38.539Z,86.15
2022-09-24T13:28:01.397Z,85.36
2022-09-24T13:33:24.108Z,83.78
2022-09-24T13:38:32.078Z,83.71
2022-09-24T13:43:48.832Z,84.86
2022-09-24T13:48:57.517Z,83.70
2022-09-24T13:54:16.350Z,82.53
2022-09-24T13:59:18.263Z,83.89
2022-09-24T14:04:22.724Z,81.39
2022-09-24T14:09:35.033Z,81.79
2022-09-24T14:14:36.994Z,81.55
2022-09-24T14:19:39.124Z,82.22
2022-09-24T14:24:49.614Z,83.70
2022-09-24T14:30:07.622Z,82.58
2022-09-24T14:35:24.608Z,82.18
2022-09-24T14:40:30.534Z,82.71
2022-09-24T14:45:40.585Z,81.33
2022-09-24T14:50:42.645Z,83.74
2022-09-24T14:55:46.574Z,82.68
2022-09-24T15:00:51.444Z,84.45
2022-09-24T15:06:16.718Z,84.34
2022-09-24T15:11:18.640Z,82.35
2022-09-24T15:16:29.698Z,82.42
2022-09-24T15:21:31.659Z,84.48
2022-09-24T15:26:35.664Z,85.32
2022-09-24T15:31:38.011Z,88.73
2022-09-24T15:36:41.588Z,89.54
2022-09-24T15:41:43.542Z,90.73
2022-09-24T15:46:48.055Z,92.73
2022-09-24T15:51:56.077Z,93.14
2022-09-24T15:56:58.771Z,95.63
2022-09-24T16:02:03.953Z,97.58
2022-09-24T16:07:05.979Z,98.97
2022-09-24T16:12:08.094Z,101.51
2022-09-24T16:17:10.424Z,103.06
2022-09-24T16:22:14.820Z,104.58
2022-09-24T16:27:20.283Z,107.02
2022-09-24T16:32:22.701Z,107.27
2022-09-24T16:37:25.557Z,109.21
2022-09-24T16:42:27.667Z,110.46
2022-09-24T16:47:29.650Z,112.52
2022-09-24T16:52:32.059Z,113.43
2022-09-24T16:57:37.993Z,115.21
2022-09-24T17:02:40.055Z,117.08
2022-09-24T17:07:42.093Z,117.03
2022-09-24T17:12:49.921Z,118.38
2022-09-24T17:17:52.117Z,-5.23
2022-09-24T17:22:54.004Z,-4.26
2022-09-24T17:27:56.049Z,-2.58
2022-09-24T17:32:58.141Z,-0.71
2022-09-24T17:38:00.128Z,0.53
2022-09-24T17:43:02.138Z,1.03
2022-09-24T17:48:05.986Z,1.91
2022-09-24T17:53:10.278Z,2.07
2022-09-24T17:58:16.317Z,2.96
2022-09-24T18:03:19.070Z,3.74
2022-09-24T18:08:21.208Z,3.95
2022-09-24T18:13:23.569Z,4.90
2022-09-24T18:18:25.713Z,5.36
2022-09-24T18:23:28.687Z,6.54
2022-09-24T18:28:30.833Z,6.56
2022-09-24T18:33:34.602Z,7.55
2022-09-24T18:38:37.218Z,7.49
2022-09-24T18:43:40.035Z,9.08
2022-09-24T18:48:44.879Z,9.22
2022-09-24T18:54:07.262Z,8.84
2022-09-24T18:59:15.035Z,8.84
2022-09-24T19:04:18.948Z,9.58
2022-09-24T19:09:21.058Z,9.99
2022-09-24T19:14:24.770Z,9.62
2022-09-24T19:19:27.642Z,10.11
2022-09-24T19:24:29.747Z,10.66
2022-09-24T19:29:31.797Z,10.91
2022-09-24T19:34:34.190Z,11.93
2022-09-24T19:39:36.473Z,12.60
2022-09-24T19:44:38.517Z,13.06
2022-09-24T19:49:40.605Z,13.60
2022-09-24T19:54:44.417Z,14.38
2022-09-24T19:59:46.631Z,14.97
2022-09-24T20:04:48.986Z,15.26
2022-09-24T20:09:51.118Z,16.70
2022-09-24T20:14:53.164Z,14.62
2022-09-24T20:19:56.731Z,14.93
2022-09-24T20:24:59.438Z,15.10
2022-09-24T20:30:01.363Z,16.34
2022-09-24T20:35:03.891Z,15.42
2022-09-24T20:40:06.718Z,17.11
2022-09-24T20:45:09.189Z,16.27
2022-09-24T20:50:11.428Z,27.02
2022-09-24T20:55:16.429Z,26.10
2022-09-24T21:00:24.612Z,23.54
2022-09-24T21:05:33.337Z,21.75
2022-09-24T21:10:35.804Z,21.54
2022-09-24T21:15:38.435Z,21.12
2022-09-24T21:20:40.360Z,20.83
2022-09-24T21:25:53.854Z,18.76
2022-09-24T21:31:03.476Z,17.83
2022-09-24T21:36:07.536Z,17.65
2022-09-24T21:41:09.528Z,18.55
2022-09-24T21:46:11.501Z,17.60
2022-09-24T21:51:21.189Z,14.92
2022-09-24T21:56:23.292Z,15.22
2022-09-24T22:01:30.953Z,16.38
2022-09-24T22:06:33.487Z,15.51
2022-09-24T22:11:36.268Z,15.30
2022-09-24T22:16:39.026Z,15.53
2022-09-24T22:21:40.970Z,14.98
2022-09-24T22:26:43.090Z,15.62
2022-09-24T22:31:45.073Z,15.84
2022-09-24T22:36:48.027Z,16.09
2022-09-24T22:41:50.857Z,16.67
2022-09-24T22:46:52.863Z,16.66
2022-09-24T22:51:54.800Z,16.66
2022-09-24T22:56:56.676Z,17.22
2022-09-24T23:01:58.589Z,19.17
2022-09-24T23:07:00.486Z,21.28
2022-09-24T23:12:02.715Z,21.67
2022-09-24T23:17:04.810Z,23.59
2022-09-24T23:22:06.804Z,21.98
2022-09-24T23:27:09.052Z,21.51
2022-09-24T23:32:11.969Z,23.17
2022-09-24T23:37:13.993Z,22.18
2022-09-24T23:42:15.943Z,21.47
2022-09-24T23:47:18.557Z,20.36
2022-09-24T23:52:20.474Z,21.52
2022-09-24T23:57:22.329Z,20.73
